Time;durP1;ratioP1;P1;durP2;ratioP2;P2;SDS_P1;SDS_P2;PMS_P1;PMS_P2;Temp;Humidity;BMP_temperature;BMP_pressure;BME280_temperature;BME280_humidity;BME280_pressure;Samples;Min_cycle;Max_cycle;Signal;HPM_P1;HPM_P2
2022/07/13 00:01:54;;;;;;;3.63;1.30;;;16.10;99.90;;;;;;5021446;28;20418;-48
2022/07/13 00:04:22;;;;;;;1.98;1.40;;;15.90;99.90;;;;;;5021399;28;20441;-52
2022/07/13 00:06:49;;;;;;;1.80;1.30;;;15.90;99.90;;;;;;5021662;28;20236;-49
2022/07/13 00:09:16;;;;;;;1.60;1.20;;;15.80;99.90;;;;;;5021303;28;20451;-48
2022/07/13 00:11:44;;;;;;;1.77;1.67;;;15.80;99.90;;;;;;5021853;28;20196;-52
2022/07/13 00:14:11;;;;;;;1.50;1.40;;;15.70;99.90;;;;;;5021008;28;20432;-53
2022/07/13 00:16:38;;;;;;;4.07;2.03;;;15.80;99.90;;;;;;5021044;28;20758;-50
2022/07/13 00:19:05;;;;;;;1.63;1.40;;;15.80;99.90;;;;;;5020901;28;20444;-47
2022/07/13 00:21:32;;;;;;;2.70;1.53;;;15.90;99.90;;;;;;5021009;28;20547;-53
2022/07/13 00:24:00;;;;;;;1.80;1.70;;;15.80;99.90;;;;;;5021251;28;20441;-53
2022/07/13 00:26:27;;;;;;;1.60;1.50;;;15.90;99.90;;;;;;5021254;28;20463;-52
2022/07/13 00:28:54;;;;;;;2.33;1.43;;;15.90;99.90;;;;;;5021419;28;20478;-50
2022/07/13 00:31:22;;;;;;;3.90;1.57;;;15.90;99.90;;;;;;5021899;28;20999;-55
2022/07/13 00:33:50;;;;;;;5.97;1.70;;;15.90;99.90;;;;;;5019951;28;20434;-49
2022/07/13 00:36:19;;;;;;;5.93;2.10;;;15.90;99.90;;;;;;5021345;28;20199;-50
2022/07/13 00:38:46;;;;;;;3.67;1.40;;;15.80;99.90;;;;;;5021538;28;20447;-53
2022/07/13 00:41:14;;;;;;;1.45;1.35;;;15.90;99.90;;;;;;5021062;28;20487;-49
2022/07/13 00:43:41;;;;;;;1.43;1.30;;;15.90;99.90;;;;;;5021248;28;20207;-52
2022/07/13 00:46:09;;;;;;;1.73;1.63;;;15.90;99.90;;;;;;5019646;28;20442;-50
2022/07/13 00:48:38;;;;;;;7.23;2.03;;;16.00;99.90;;;;;;4965227;28;1629185;-51
2022/07/13 00:51:06;;;;;;;1.30;1.20;;;16.00;99.90;;;;;;5021913;28;20200;-50
2022/07/13 00:53:38;;;;;;;3.13;1.83;;;16.00;99.90;;;;;;5021964;28;20775;-50
2022/07/13 00:56:06;;;;;;;7.30;1.63;;;16.00;99.90;;;;;;5021995;28;20745;-49
2022/07/13 00:58:33;;;;;;;1.40;1.30;;;15.80;99.90;;;;;;5021389;28;20460;-52
2022/07/13 01:01:00;;;;;;;3.00;1.53;;;15.80;99.90;;;;;;5021553;28;20507;-51
2022/07/13 01:03:28;;;;;;;3.23;1.63;;;15.80;99.90;;;;;;5021765;28;20456;-48
2022/07/13 01:05:55;;;;;;;1.33;1.23;;;15.60;99.90;;;;;;5021588;28;20636;-52
2022/07/13 01:08:25;;;;;;;4.87;2.03;;;15.60;99.90;;;;;;5021519;28;20538;-49
2022/07/13 01:10:52;;;;;;;1.75;1.65;;;15.50;99.90;;;;;;5021918;28;20436;-49
2022/07/13 01:13:22;;;;;;;1.85;1.17;;;15.60;99.90;;;;;;5021723;28;20198;-51
2022/07/13 01:15:49;;;;;;;2.10;1.40;;;15.40;99.90;;;;;;5021391;28;20430;-49
2022/07/13 01:18:17;;;;;;;6.00;1.40;;;15.40;99.90;;;;;;5021422;28;20232;-51
2022/07/13 01:20:44;;;;;;;1.65;1.10;;;15.30;99.90;;;;;;5021751;28;20272;-48
2022/07/13 01:23:16;;;;;;;3.17;1.50;;;15.20;99.90;;;;;;5020910;28;20206;-51
2022/07/13 01:25:44;;;;;;;4.78;1.40;;;15.20;99.90;;;;;;5021172;28;20224;-48
2022/07/13 01:28:18;;;;;;;1.38;1.15;;;15.20;99.90;;;;;;5020920;28;20244;-52
2022/07/13 01:30:45;;;;;;;2.17;1.48;;;15.20;99.90;;;;;;5021342;28;20552;-55
2022/07/13 01:33:12;;;;;;;1.40;1.30;;;15.10;99.90;;;;;;5020968;28;20198;-54
2022/07/13 01:35:39;;;;;;;2.33;1.67;;;15.10;99.90;;;;;;5021649;28;20198;-51
2022/07/13 01:38:08;;;;;;;2.65;1.50;;;15.00;99.90;;;;;;5021123;28;20415;-53
2022/07/13 01:40:35;;;;;;;5.32;1.60;;;15.00;99.90;;;;;;5020677;28;20242;-49
2022/07/13 01:43:03;;;;;;;2.00;1.50;;;15.00;99.90;;;;;;5020842;28;20208;-51
2022/07/13 01:45:30;;;;;;;5.32;1.98;;;15.00;99.90;;;;;;5020656;28;20409;-50
2022/07/13 01:47:57;;;;;;;6.25;2.55;;;14.90;99.90;;;;;;5020287;28;20268;-50
2022/07/13 01:50:26;;;;;;;1.52;1.42;;;14.90;99.90;;;;;;5020568;28;20205;-51
2022/07/13 01:52:53;;;;;;;3.90;1.73;;;14.80;99.90;;;;;;5020336;28;20555;-50
2022/07/13 01:55:22;;;;;;;2.50;1.88;;;14.80;99.90;;;;;;5020566;28;20232;-52
2022/07/13 01:57:59;;;;;;;1.80;1.70;;;14.70;99.90;;;;;;5019910;28;20247;-51
2022/07/13 02:00:27;;;;;;;2.08;1.60;;;14.70;99.90;;;;;;5020468;28;20273;-54
2022/07/13 02:02:54;;;;;;;2.55;1.63;;;14.70;99.90;;;;;;5020200;28;20239;-50
2022/07/13 02:05:25;;;;;;;1.40;1.30;;;14.70;99.90;;;;;;5020777;28;20200;-51
2022/07/13 02:07:53;;;;;;;3.70;1.50;;;14.60;99.90;;;;;;5020017;28;20451;-51
2022/07/13 02:10:21;;;;;;;2.00;1.90;;;14.60;99.90;;;;;;5020506;28;20206;-50
2022/07/13 02:12:48;;;;;;;2.25;1.80;;;14.60;99.90;;;;;;5020166;28;20225;-53
2022/07/13 02:15:15;;;;;;;3.42;1.42;;;14.60;99.90;;;;;;5020303;28;20268;-52
2022/07/13 02:17:42;;;;;;;1.60;1.50;;;14.60;99.90;;;;;;5020062;28;20229;-52
2022/07/13 02:20:10;;;;;;;1.63;1.52;;;14.60;99.90;;;;;;5020358;28;20435;-50
2022/07/13 02:22:42;;;;;;;1.60;1.48;;;14.60;99.90;;;;;;5020173;28;20507;-48
2022/07/13 02:25:11;;;;;;;2.40;1.40;;;14.60;99.90;;;;;;5020264;28;20247;-49
2022/07/13 02:27:39;;;;;;;2.17;1.60;;;14.60;99.90;;;;;;5019895;28;20229;-47
2022/07/13 02:30:08;;;;;;;1.70;1.60;;;14.60;99.90;;;;;;5020020;28;20206;-51
2022/07/13 02:32:35;;;;;;;1.50;1.40;;;14.50;99.90;;;;;;5020255;28;20201;-48
2022/07/13 02:35:03;;;;;;;1.83;1.73;;;14.50;99.90;;;;;;5020090;28;20251;-48
2022/07/13 02:37:30;;;;;;;1.52;1.42;;;14.50;99.90;;;;;;5020143;28;20220;-51
2022/07/13 02:39:58;;;;;;;1.83;1.45;;;14.60;99.90;;;;;;5020097;28;20452;-52
2022/07/13 02:42:26;;;;;;;3.67;1.50;;;14.50;99.90;;;;;;5019856;28;20205;-50
2022/07/13 02:44:54;;;;;;;3.95;1.70;;;14.60;99.90;;;;;;5019815;28;20212;-49
2022/07/13 02:47:21;;;;;;;1.85;1.63;;;14.50;99.90;;;;;;5019489;28;20225;-51
2022/07/13 02:49:48;;;;;;;4.88;1.60;;;14.50;99.90;;;;;;5019937;28;20291;-52
2022/07/13 02:52:17;;;;;;;1.70;1.60;;;14.50;99.90;;;;;;5020371;28;20198;-51
2022/07/13 02:54:44;;;;;;;1.48;1.40;;;14.50;99.90;;;;;;5020103;28;20248;-50
2022/07/13 02:57:11;;;;;;;2.15;1.75;;;14.60;99.90;;;;;;5018739;28;20582;-49
2022/07/13 02:59:39;;;;;;;3.20;2.55;;;14.50;99.90;;;;;;5019796;28;20256;-48
2022/07/13 03:02:07;;;;;;;3.05;1.95;;;14.50;99.90;;;;;;5020037;28;20202;-47
2022/07/13 03:04:34;;;;;;;4.55;1.95;;;14.60;99.90;;;;;;5019635;28;20240;-52
2022/07/13 03:07:02;;;;;;;3.10;2.08;;;14.70;99.90;;;;;;5019640;28;20415;-51
2022/07/13 03:09:30;;;;;;;2.22;1.60;;;14.70;99.90;;;;;;5020040;28;20229;-47
2022/07/13 03:11:57;;;;;;;6.45;1.85;;;14.60;99.90;;;;;;5023764;28;20210;-53
2022/07/13 03:14:24;;;;;;;2.20;2.05;;;14.60;99.90;;;;;;5023948;28;20224;-49
2022/07/13 03:16:52;;;;;;;1.60;1.50;;;14.70;99.90;;;;;;5022374;28;20655;-53
2022/07/13 03:19:19;;;;;;;1.98;1.85;;;14.80;99.90;;;;;;5023496;28;20209;-52
2022/07/13 03:21:46;;;;;;;4.97;2.40;;;14.90;99.90;;;;;;5022554;28;20415;-53
2022/07/13 03:24:13;;;;;;;1.65;1.55;;;15.00;99.90;;;;;;5023378;28;20209;-51
2022/07/13 03:26:41;;;;;;;1.90;1.80;;;15.30;99.90;;;;;;5023052;28;20234;-49
2022/07/13 03:29:08;;;;;;;1.48;1.38;;;15.40;99.90;;;;;;5023191;28;20264;-49
2022/07/13 03:31:36;;;;;;;8.32;1.70;;;15.50;99.90;;;;;;5023392;28;20228;-50
2022/07/13 03:34:03;;;;;;;5.20;2.90;;;15.70;99.90;;;;;;5023626;28;20222;-53
2022/07/13 03:36:31;;;;;;;4.10;1.73;;;16.10;99.90;;;;;;5022802;28;20532;-49
2022/07/13 03:38:58;;;;;;;5.03;1.90;;;16.40;99.90;;;;;;5024209;28;20204;-54
2022/07/13 03:41:25;;;;;;;2.50;1.60;;;16.90;99.90;;;;;;5024014;28;20409;-54
2022/07/13 03:43:52;;;;;;;1.87;1.70;;;17.70;99.90;;;;;;5024002;28;20813;-51
2022/07/13 03:46:19;;;;;;;2.97;1.93;;;18.60;99.90;;;;;;5022990;28;20675;-47
2022/07/13 03:48:47;;;;;;;1.70;1.57;;;19.50;99.90;;;;;;5023497;28;20505;-47
2022/07/13 03:51:14;;;;;;;1.40;1.30;;;19.80;99.90;;;;;;5023068;28;20426;-48
2022/07/13 03:53:41;;;;;;;2.53;1.70;;;20.00;99.90;;;;;;5023612;28;20650;-48
2022/07/13 03:56:09;;;;;;;2.80;2.30;;;20.10;99.90;;;;;;5023208;28;20430;-50
2022/07/13 03:58:36;;;;;;;2.37;2.10;;;20.20;99.90;;;;;;5023548;28;20456;-49
2022/07/13 04:01:03;;;;;;;2.80;1.93;;;20.30;99.90;;;;;;5022937;28;20436;-52
2022/07/13 04:03:30;;;;;;;4.43;2.60;;;20.10;99.90;;;;;;5023204;28;20417;-53
2022/07/13 04:05:58;;;;;;;3.40;1.90;;;19.90;99.90;;;;;;5022812;28;20644;-51
2022/07/13 04:08:25;;;;;;;2.47;1.80;;;19.90;99.90;;;;;;5022695;28;20436;-51
2022/07/13 04:10:53;;;;;;;3.17;1.60;;;19.70;99.90;;;;;;5022739;28;20500;-50
2022/07/13 04:13:20;;;;;;;1.83;1.60;;;19.50;99.90;;;;;;5022712;28;20405;-50
2022/07/13 04:15:47;;;;;;;3.13;1.80;;;19.60;99.90;;;;;;5022397;28;20800;-52
2022/07/13 04:18:14;;;;;;;2.10;1.77;;;19.30;99.90;;;;;;5022134;28;20461;-51
2022/07/13 04:20:42;;;;;;;4.13;1.47;;;19.00;99.90;;;;;;5022602;28;20675;-50
2022/07/13 04:23:09;;;;;;;2.43;1.93;;;18.80;99.90;;;;;;5021396;28;20417;-52
2022/07/13 04:25:36;;;;;;;1.97;1.70;;;18.60;99.90;;;;;;5022713;28;20452;-47
2022/07/13 04:28:03;;;;;;;2.00;1.90;;;18.50;99.90;;;;;;5022123;28;20801;-49
2022/07/13 04:30:31;;;;;;;3.27;2.10;;;18.50;99.90;;;;;;5022340;28;20431;-53
2022/07/13 04:32:58;;;;;;;3.40;2.00;;;18.40;99.90;;;;;;5023026;28;20518;-51
2022/07/13 04:35:25;;;;;;;1.80;1.70;;;18.30;99.90;;;;;;5022606;28;20448;-50
2022/07/13 04:37:53;;;;;;;1.40;1.30;;;18.30;99.90;;;;;;5022227;28;20808;-52
2022/07/13 04:40:20;;;;;;;1.93;1.40;;;18.40;99.90;;;;;;5022082;28;20441;-50
2022/07/13 04:42:48;;;;;;;2.37;1.43;;;18.40;99.90;;;;;;5022281;28;20473;-51
2022/07/13 04:45:18;;;;;;;4.00;2.53;;;18.60;99.90;;;;;;5022436;28;20683;-48
2022/07/13 04:47:46;;;;;;;2.80;2.10;;;18.70;99.90;;;;;;5022634;28;20439;-50
2022/07/13 04:50:13;;;;;;;3.53;1.67;;;18.80;99.90;;;;;;5022400;28;20475;-52
2022/07/13 04:52:40;;;;;;;3.50;1.87;;;19.10;99.90;;;;;;5022272;28;20432;-50
2022/07/13 04:55:09;;;;;;;1.53;1.43;;;19.50;99.90;;;;;;5022338;28;20439;-48
2022/07/13 04:57:37;;;;;;;3.77;1.77;;;19.90;99.90;;;;;;5021795;28;20457;-52
2022/07/13 05:00:06;;;;;;;1.63;1.53;;;20.10;99.90;;;;;;5022276;28;20486;-52
2022/07/13 05:02:34;;;;;;;2.00;1.20;;;20.50;99.90;;;;;;5022133;28;20733;-52
2022/07/13 05:05:03;;;;;;;1.90;1.70;;;20.90;99.90;;;;;;5022573;28;20435;-53
2022/07/13 05:07:30;;;;;;;3.97;2.20;;;21.20;99.90;;;;;;5022062;28;20457;-53
2022/07/13 05:10:05;;;;;;;2.80;1.83;;;21.40;99.90;;;;;;5021927;28;20509;-50
2022/07/13 05:12:40;;;;;;;1.13;0.97;;;21.40;99.90;;;;;;5021530;28;20444;-48
2022/07/13 05:15:08;;;;;;;2.13;1.57;;;21.40;99.90;;;;;;5021601;28;20786;-51
2022/07/13 05:17:36;;;;;;;1.97;1.37;;;21.20;99.90;;;;;;5021400;28;20459;-53
2022/07/13 05:20:04;;;;;;;2.37;1.43;;;21.30;99.90;;;;;;5021916;28;20414;-49
2022/07/13 05:22:31;;;;;;;1.23;1.13;;;21.60;99.90;;;;;;5021834;28;20407;-50
2022/07/13 05:24:59;;;;;;;1.50;1.40;;;21.90;99.90;;;;;;5021028;28;20440;-49
2022/07/13 05:27:27;;;;;;;2.30;2.10;;;22.10;99.90;;;;;;5021604;28;20763;-52
2022/07/13 05:29:54;;;;;;;1.77;1.67;;;22.40;99.90;;;;;;5021320;28;20469;-52
2022/07/13 05:32:21;;;;;;;3.07;1.47;;;22.60;99.90;;;;;;5020720;28;20429;-47
2022/07/13 05:34:48;;;;;;;1.63;1.40;;;22.80;99.90;;;;;;5021284;28;20416;-50
2022/07/13 05:37:16;;;;;;;3.93;1.70;;;23.10;99.90;;;;;;5021098;28;20451;-52
2022/07/13 05:39:44;;;;;;;1.93;1.30;;;23.10;99.90;;;;;;5021067;28;20420;-51
2022/07/13 05:42:13;;;;;;;5.50;1.97;;;22.80;99.90;;;;;;5021043;28;20452;-52
2022/07/13 05:44:40;;;;;;;4.57;1.90;;;22.40;99.90;;;;;;5021096;28;20416;-51
2022/07/13 05:47:08;;;;;;;3.33;1.30;;;22.10;99.90;;;;;;5020765;28;20642;-52
2022/07/13 05:49:35;;;;;;;1.87;1.50;;;22.00;99.90;;;;;;5020827;28;20467;-51
2022/07/13 05:52:02;;;;;;;2.30;1.63;;;22.00;99.90;;;;;;5021001;28;20438;-50
2022/07/13 05:54:31;;;;;;;1.97;1.50;;;21.90;99.90;;;;;;5021512;28;20503;-52
2022/07/13 05:57:10;;;;;;;3.37;1.90;;;22.00;99.90;;;;;;5020074;28;20454;-47
2022/07/13 05:59:37;;;;;;;1.80;1.37;;;21.90;99.90;;;;;;5020983;28;20438;-48
2022/07/13 06:02:05;;;;;;;1.00;1.00;;;22.00;99.90;;;;;;5021122;28;20448;-48
2022/07/13 06:04:32;;;;;;;2.83;1.53;;;22.00;99.90;;;;;;5019576;28;20504;-51
2022/07/13 06:06:59;;;;;;;2.90;1.80;;;22.10;99.90;;;;;;5021167;28;20461;-53
2022/07/13 06:09:27;;;;;;;1.40;1.30;;;22.20;99.90;;;;;;5020732;28;20452;-50
2022/07/13 06:11:54;;;;;;;4.83;1.80;;;22.60;99.90;;;;;;5020662;28;20735;-52
2022/07/13 06:14:22;;;;;;;2.67;2.23;;;23.00;99.90;;;;;;5020264;28;20430;-48
2022/07/13 06:16:49;;;;;;;2.27;2.07;;;23.10;99.90;;;;;;5020383;28;20425;-51
2022/07/13 06:19:16;;;;;;;2.23;2.00;;;23.30;99.90;;;;;;5020965;28;20454;-52
2022/07/13 06:21:44;;;;;;;2.40;1.83;;;23.50;99.90;;;;;;5020455;28;20765;-52
2022/07/13 06:24:11;;;;;;;2.63;1.50;;;23.60;99.90;;;;;;5021061;28;20737;-53
2022/07/13 06:26:39;;;;;;;3.40;1.33;;;24.20;99.90;;;;;;5020775;28;20617;-54
2022/07/13 06:29:06;;;;;;;1.63;1.10;;;24.50;99.90;;;;;;5020629;28;20805;-52
2022/07/13 06:31:33;;;;;;;1.30;1.20;;;24.60;99.90;;;;;;5020387;28;20762;-53
2022/07/13 06:34:01;;;;;;;4.23;1.17;;;24.20;99.90;;;;;;5020400;28;20502;-55
2022/07/13 06:36:28;;;;;;;4.30;2.07;;;24.00;99.90;;;;;;5020356;28;20784;-48
2022/07/13 06:38:56;;;;;;;2.60;1.87;;;24.00;99.90;;;;;;5020719;28;20496;-51
2022/07/13 06:41:23;;;;;;;2.03;1.40;;;24.20;99.90;;;;;;5020595;28;20440;-50
2022/07/13 06:43:50;;;;;;;1.83;1.70;;;24.40;99.90;;;;;;5020203;28;20744;-54
2022/07/13 06:46:17;;;;;;;2.00;1.70;;;24.60;99.90;;;;;;5020010;28;20453;-52
2022/07/13 06:48:51;;;;;;;1.43;1.33;;;24.50;99.90;;;;;;5020439;28;20512;-52
2022/07/13 06:51:19;;;;;;;12.03;4.43;;;24.50;99.90;;;;;;5020206;28;20409;-50
2022/07/13 06:53:46;;;;;;;9.70;2.40;;;24.80;99.90;;;;;;5020791;28;20435;-52
2022/07/13 06:56:13;;;;;;;13.97;2.37;;;25.00;99.90;;;;;;5020005;28;20426;-52
2022/07/13 06:58:40;;;;;;;38.53;8.40;;;25.40;99.90;;;;;;5019772;28;20433;-49
2022/07/13 07:01:07;;;;;;;4.93;2.20;;;26.10;99.90;;;;;;5020535;28;20669;-52
2022/07/13 07:03:35;;;;;;;10.53;3.23;;;26.90;99.90;;;;;;5020171;28;20444;-54
2022/07/13 07:06:04;;;;;;;1.90;1.30;;;28.00;99.90;;;;;;5020233;28;20579;-49
2022/07/13 07:08:31;;;;;;;3.23;1.50;;;29.60;99.90;;;;;;5020014;28;20484;-54
2022/07/13 07:10:59;;;;;;;2.60;1.30;;;30.00;99.90;;;;;;5020362;28;20430;-50
2022/07/13 07:13:26;;;;;;;2.70;2.10;;;30.60;99.90;;;;;;5019986;28;20440;-50
2022/07/13 07:15:53;;;;;;;1.20;1.10;;;32.20;99.90;;;;;;5020320;28;20629;-50
2022/07/13 07:18:21;;;;;;;0.87;0.87;;;32.80;97.60;;;;;;5019821;28;20774;-50
2022/07/13 07:20:49;;;;;;;1.27;1.17;;;31.40;98.20;;;;;;5020281;28;20439;-52
2022/07/13 07:23:17;;;;;;;6.53;1.50;;;30.40;99.90;;;;;;5019814;28;20772;-54
2022/07/13 07:25:44;;;;;;;1.30;1.20;;;29.80;99.90;;;;;;5019798;28;20434;-48
2022/07/13 07:28:12;;;;;;;1.80;1.20;;;28.90;99.90;;;;;;5019831;28;20504;-49
2022/07/13 07:30:40;;;;;;;1.33;1.10;;;28.40;99.90;;;;;;5020159;28;20474;-55
2022/07/13 07:33:07;;;;;;;3.13;1.30;;;27.90;99.90;;;;;;5020014;28;20812;-54
2022/07/13 07:35:34;;;;;;;1.30;1.13;;;28.70;99.90;;;;;;5019861;28;20438;-50
2022/07/13 07:38:01;;;;;;;1.70;1.43;;;30.20;99.90;;;;;;5019751;28;20449;-47
2022/07/13 07:40:29;;;;;;;7.20;1.40;;;31.10;99.30;;;;;;5019574;28;20443;-51
2022/07/13 07:42:56;;;;;;;4.30;1.20;;;32.50;96.70;;;;;;5020089;28;20432;-53
2022/07/13 07:45:24;;;;;;;7.10;1.60;;;33.70;93.60;;;;;;5020112;28;20481;-50
2022/07/13 07:47:52;;;;;;;4.63;2.20;;;34.10;93.10;;;;;;5019880;28;20656;-54
2022/07/13 07:50:19;;;;;;;1.30;1.20;;;33.00;93.40;;;;;;5019843;28;20473;-54
2022/07/13 07:52:47;;;;;;;1.70;1.60;;;31.50;94.90;;;;;;5019803;28;20445;-54
2022/07/13 07:55:20;;;;;;;12.40;1.50;;;31.10;95.80;;;;;;5020598;28;20435;-51
2022/07/13 07:57:49;;;;;;;1.40;1.30;;;31.40;95.00;;;;;;5023514;28;20457;-52
2022/07/13 08:00:17;;;;;;;1.57;1.23;;;31.40;95.10;;;;;;5023497;28;20499;-49
2022/07/13 08:02:45;;;;;;;1.33;1.23;;;30.60;95.80;;;;;;5023232;28;20444;-50
2022/07/13 08:05:14;;;;;;;2.10;1.30;;;30.50;96.70;;;;;;5022905;28;20433;-51
2022/07/13 08:07:43;;;;;;;1.50;1.40;;;30.30;96.70;;;;;;5023010;28;20458;-53
2022/07/13 08:10:14;;;;;;;2.20;1.37;;;29.90;97.50;;;;;;5022746;28;20910;-52
2022/07/13 08:12:56;;;;;;;2.00;1.37;;;29.70;98.00;;;;;;5022863;28;20430;-54
2022/07/13 08:15:23;;;;;;;1.60;1.50;;;29.70;98.30;;;;;;5023146;28;20505;-54
2022/07/13 08:17:50;;;;;;;2.60;1.13;;;29.60;98.60;;;;;;5022872;28;20510;-54
2022/07/13 08:20:18;;;;;;;2.23;1.60;;;29.80;98.80;;;;;;5023141;28;20439;-52
2022/07/13 08:22:49;;;;;;;3.77;1.40;;;29.50;98.80;;;;;;5023152;28;20461;-51
2022/07/13 08:25:17;;;;;;;1.20;1.10;;;29.90;98.40;;;;;;5022968;28;20417;-51
2022/07/13 08:27:44;;;;;;;3.17;1.87;;;30.30;98.10;;;;;;5022955;28;20676;-50
2022/07/13 08:30:12;;;;;;;2.57;1.40;;;30.30;97.90;;;;;;5022516;28;20769;-49
2022/07/13 08:32:40;;;;;;;1.53;1.40;;;30.10;98.10;;;;;;5021415;28;20434;-50
2022/07/13 08:40:42;;;;;;;2.30;1.90;;;32.60;94.60;;;;;;5022387;28;20412;-54
2022/07/13 08:43:10;;;;;;;1.50;1.30;;;34.90;91.10;;;;;;5023168;28;20630;-49
2022/07/13 08:45:37;;;;;;;1.40;1.30;;;35.40;87.40;;;;;;5022128;28;20450;-51
2022/07/13 08:48:18;;;;;;;1.30;1.20;;;35.50;85.00;;;;;;5022226;28;20863;-54
2022/07/13 08:50:47;;;;;;;1.30;1.20;;;35.80;83.10;;;;;;5022468;28;20697;-53
2022/07/13 08:53:15;;;;;;;5.23;1.60;;;36.90;78.80;;;;;;5022066;28;20435;-50
2022/07/13 08:55:43;;;;;;;1.80;1.43;;;38.20;74.30;;;;;;5022370;28;20438;-50
2022/07/13 08:58:17;;;;;;;1.63;1.53;;;38.00;71.20;;;;;;5022272;28;20563;-51
2022/07/13 09:00:44;;;;;;;2.13;1.37;;;38.00;69.20;;;;;;5022354;28;20430;-50
2022/07/13 09:03:12;;;;;;;1.60;1.50;;;37.00;67.30;;;;;;5022276;28;20430;-47
2022/07/13 09:05:40;;;;;;;1.10;1.07;;;36.20;68.50;;;;;;5021667;28;20453;-51
2022/07/13 09:08:09;;;;;;;2.20;1.20;;;36.40;68.10;;;;;;5020501;28;20489;-49
2022/07/13 09:10:51;;;;;;;1.17;1.07;;;37.20;65.40;;;;;;5022010;28;20477;-51
2022/07/13 09:13:44;;;;;;;1.20;1.10;;;38.40;61.50;;;;;;5022489;28;20450;-48
2022/07/13 09:16:20;;;;;;;0.90;0.90;;;36.80;63.40;;;;;;5022136;28;20435;-49
2022/07/13 09:18:53;;;;;;;1.20;1.10;;;35.80;62.50;;;;;;5022794;28;20620;-55
2022/07/13 09:21:31;;;;;;;1.33;1.17;;;35.80;63.70;;;;;;5021756;28;20438;-52
2022/07/13 09:24:03;;;;;;;1.30;1.20;;;34.40;68.10;;;;;;5022138;28;20665;-49
2022/07/13 09:26:45;;;;;;;1.40;1.30;;;33.70;69.70;;;;;;5021727;28;20441;-48
2022/07/13 09:29:13;;;;;;;0.97;0.97;;;33.10;68.10;;;;;;5022328;28;20509;-52
2022/07/13 09:31:55;;;;;;;1.10;1.00;;;32.40;67.50;;;;;;5021975;28;20437;-52
2022/07/13 09:34:48;;;;;;;2.40;2.03;;;32.30;67.60;;;;;;5021828;28;20434;-50
2022/07/13 09:37:18;;;;;;;1.07;1.00;;;33.20;67.70;;;;;;5021285;28;20615;-51
2022/07/13 09:39:57;;;;;;;2.23;0.90;;;34.50;65.40;;;;;;5021690;28;20431;-52
2022/07/13 09:42:29;;;;;;;2.00;1.43;;;33.90;66.50;;;;;;5021658;28;20450;-52
2022/07/13 09:47:55;;;;;;;7.27;2.27;;;32.30;72.30;;;;;;5042217;22;20485;-58
2022/07/13 09:50:37;;;;;;;2.03;1.07;;;32.20;73.70;;;;;;5020607;28;20689;-58
2022/07/13 09:53:25;;;;;;;1.20;1.10;;;32.00;73.00;;;;;;5020535;28;20464;-57
2022/07/13 09:55:52;;;;;;;0.87;0.87;;;31.80;72.90;;;;;;5020640;28;20444;-58
2022/07/13 09:58:29;;;;;;;1.27;1.17;;;31.40;73.20;;;;;;5003674;28;20717;-60
2022/07/13 10:00:59;;;;;;;0.80;0.80;;;31.20;75.10;;;;;;5021171;28;20504;-57
2022/07/13 10:03:31;;;;;;;1.37;1.27;;;31.10;76.30;;;;;;5020843;28;20439;-58
2022/07/13 10:06:00;;;;;;;2.30;1.07;;;30.80;75.20;;;;;;5020566;28;20428;-59
2022/07/13 10:08:28;;;;;;;2.53;1.37;;;30.40;75.50;;;;;;5020520;28;20457;-58
2022/07/13 10:10:55;;;;;;;1.37;1.27;;;30.40;77.20;;;;;;5021072;28;20533;-57
2022/07/13 10:13:23;;;;;;;1.40;1.30;;;30.30;75.80;;;;;;5020814;28;20478;-58
2022/07/13 10:15:51;;;;;;;1.13;1.03;;;30.40;75.90;;;;;;5020855;28;20439;-59
2022/07/13 10:18:28;;;;;;;1.47;1.33;;;30.40;74.70;;;;;;5020204;28;20461;-55
2022/07/13 10:21:09;;;;;;;1.00;1.00;;;30.10;75.30;;;;;;5020470;28;20436;-56
2022/07/13 10:23:38;;;;;;;1.20;1.10;;;29.80;73.50;;;;;;5020605;28;20431;-56
2022/07/13 10:26:25;;;;;;;0.97;0.97;;;29.50;73.10;;;;;;5020696;28;20642;-57
2022/07/13 10:29:21;;;;;;;0.90;0.87;;;29.10;73.50;;;;;;5020296;28;20432;-58
2022/07/13 10:31:59;;;;;;;1.83;0.90;;;28.80;75.00;;;;;;5018512;28;20484;-54
2022/07/13 10:35:00;;;;;;;1.67;1.00;;;28.50;76.00;;;;;;5019927;28;20409;-55
2022/07/13 10:37:28;;;;;;;1.40;1.27;;;28.20;78.00;;;;;;5020370;28;20538;-57
2022/07/13 10:40:15;;;;;;;1.20;1.10;;;27.90;78.90;;;;;;5019994;28;20455;-57
2022/07/13 10:42:58;;;;;;;1.33;1.23;;;27.80;80.50;;;;;;5020516;28;20500;-57
2022/07/13 10:45:38;;;;;;;1.10;1.10;;;27.80;80.90;;;;;;5020170;28;20756;-57
2022/07/13 10:48:13;;;;;;;1.67;1.40;;;27.80;81.60;;;;;;5020041;28;20462;-60
2022/07/13 10:50:48;;;;;;;1.70;1.40;;;27.90;79.80;;;;;;5020194;28;20455;-57
2022/07/13 10:53:16;;;;;;;1.20;1.10;;;28.00;77.90;;;;;;5019910;28;20480;-59
2022/07/13 10:55:51;;;;;;;0.70;0.70;;;28.10;77.40;;;;;;5020467;28;20430;-55
2022/07/13 10:58:39;;;;;;;1.20;1.10;;;28.10;76.50;;;;;;5020079;28;20787;-58
2022/07/13 11:01:35;;;;;;;1.43;1.03;;;28.70;74.20;;;;;;5020212;28;20527;-55
2022/07/13 11:04:07;;;;;;;0.90;0.90;;;29.50;72.70;;;;;;5019955;28;20726;-58
2022/07/13 11:06:36;;;;;;;1.23;0.90;;;29.90;71.10;;;;;;5019891;28;20673;-57
2022/07/13 11:09:08;;;;;;;1.00;0.90;;;30.10;71.50;;;;;;5019988;28;20454;-59
2022/07/13 11:11:44;;;;;;;2.70;1.20;;;30.30;71.20;;;;;;5019726;28;20533;-57
2022/07/13 11:14:46;;;;;;;1.30;1.00;;;30.20;70.30;;;;;;5019889;28;20761;-57
2022/07/13 11:17:24;;;;;;;1.43;1.33;;;30.00;72.10;;;;;;5009659;28;20541;-60
2022/07/13 11:20:00;;;;;;;1.10;1.00;;;30.50;73.00;;;;;;5019384;28;20653;-57
2022/07/13 11:25:33;;;;;;;1.63;1.10;;;31.50;71.10;;;;;;5019366;28;20440;-59
2022/07/13 11:28:10;;;;;;;0.83;0.83;;;31.60;69.60;;;;;;5020044;28;20787;-56
2022/07/13 11:30:43;;;;;;;3.90;1.20;;;31.30;67.50;;;;;;5020319;28;20475;-58
2022/07/13 11:33:11;;;;;;;1.20;1.10;;;31.30;68.00;;;;;;5023506;28;20613;-57
2022/07/13 11:35:44;;;;;;;1.20;1.10;;;31.60;67.80;;;;;;5022970;28;20437;-57
2022/07/13 11:38:13;;;;;;;0.87;0.87;;;31.60;65.80;;;;;;5023752;28;20641;-58
2022/07/13 11:40:41;;;;;;;9.63;1.23;;;31.40;66.40;;;;;;5023300;28;20441;-57
2022/07/13 11:43:09;;;;;;;1.67;1.07;;;31.70;67.00;;;;;;5023448;28;20441;-56
2022/07/13 11:45:40;;;;;;;1.60;1.27;;;31.50;65.70;;;;;;5023161;28;20437;-59
2022/07/13 11:48:12;;;;;;;1.53;1.37;;;31.10;66.50;;;;;;5005584;28;20496;-59
2022/07/13 11:50:50;;;;;;;2.33;1.33;;;31.20;67.20;;;;;;5022729;28;20536;-58
2022/07/13 11:53:24;;;;;;;2.37;1.47;;;31.40;67.80;;;;;;5023027;28;20487;-57
2022/07/13 11:55:52;;;;;;;1.57;1.20;;;31.30;67.60;;;;;;5022558;28;20411;-59
2022/07/13 11:58:21;;;;;;;1.67;1.40;;;31.20;67.70;;;;;;5023121;28;20480;-57
2022/07/13 12:00:48;;;;;;;1.43;1.10;;;31.10;67.90;;;;;;5022881;28;20512;-59
2022/07/13 12:03:23;;;;;;;1.17;1.03;;;31.10;68.60;;;;;;5023212;28;20596;-58
2022/07/13 12:05:58;;;;;;;1.40;1.30;;;31.10;69.10;;;;;;5022904;28;20432;-57
2022/07/13 12:08:26;;;;;;;2.50;1.40;;;30.70;68.60;;;;;;5022651;28;20423;-60
2022/07/13 12:10:53;;;;;;;2.20;1.10;;;30.60;70.10;;;;;;5022330;28;20857;-58
2022/07/13 12:13:25;;;;;;;1.43;1.33;;;30.40;68.30;;;;;;5022666;28;20428;-57
2022/07/13 12:15:53;;;;;;;2.40;1.50;;;30.20;70.80;;;;;;5005294;28;20763;-58
2022/07/13 12:18:20;;;;;;;2.07;1.63;;;30.10;70.60;;;;;;5022561;28;20452;-59
2022/07/13 12:20:48;;;;;;;1.43;1.33;;;30.10;69.90;;;;;;5022770;28;20435;-58
2022/07/13 12:23:19;;;;;;;5.33;1.30;;;30.20;70.40;;;;;;5023111;28;20431;-57
2022/07/13 12:25:47;;;;;;;0.97;0.97;;;30.40;68.50;;;;;;5022745;28;20471;-58
2022/07/13 12:28:15;;;;;;;1.50;1.40;;;30.10;68.70;;;;;;5022398;28;20451;-61
2022/07/13 12:30:57;;;;;;;1.93;1.20;;;30.30;69.50;;;;;;5023335;28;20474;-59
2022/07/13 12:33:24;;;;;;;1.27;1.17;;;30.60;67.60;;;;;;5023700;28;20530;-57
2022/07/13 12:36:03;;;;;;;1.40;1.30;;;30.80;66.30;;;;;;5022893;28;20441;-59
2022/07/13 12:38:31;;;;;;;0.83;0.73;;;30.90;64.70;;;;;;5022009;28;20643;-58
2022/07/13 12:41:01;;;;;;;1.30;1.20;;;31.00;65.70;;;;;;5022138;28;20444;-59
2022/07/13 12:43:30;;;;;;;1.00;0.90;;;31.30;65.90;;;;;;5022126;28;20419;-58
2022/07/13 12:46:02;;;;;;;1.90;1.67;;;31.40;66.90;;;;;;5022076;28;20475;-59
2022/07/13 12:48:35;;;;;;;1.07;1.03;;;31.30;66.70;;;;;;5021391;28;20507;-57
2022/07/13 12:51:06;;;;;;;1.93;1.00;;;31.00;67.30;;;;;;5022405;28;20492;-58
2022/07/13 12:53:56;;;;;;;1.10;1.00;;;30.80;67.10;;;;;;5021847;28;20509;-58
2022/07/13 12:56:26;;;;;;;1.47;1.17;;;30.70;68.70;;;;;;5021845;28;20635;-58
2022/07/13 12:58:55;;;;;;;1.33;1.23;;;31.00;67.70;;;;;;5021606;28;20598;-58
2022/07/13 13:01:30;;;;;;;1.40;1.30;;;31.30;67.90;;;;;;5022243;28;20455;-54
2022/07/13 13:04:00;;;;;;;1.17;1.07;;;31.00;66.50;;;;;;5021813;28;20463;-57
2022/07/13 13:06:35;;;;;;;1.10;1.00;;;30.70;66.30;;;;;;5021492;28;20482;-56
2022/07/13 13:09:11;;;;;;;1.20;1.10;;;30.60;67.10;;;;;;5021288;28;20456;-58
2022/07/13 13:11:41;;;;;;;1.07;1.00;;;30.60;67.30;;;;;;5021198;28;20849;-56